sensor_id;sensor_type;location;lat;lon;timestamp;temperature;humidity
7427;DHT22;3755;59.316;18.092;2022-09-04T00:02:33;11.30;99.90
7427;DHT22;3755;59.316;18.092;2022-09-04T00:05:12;11.30;99.90
7427;DHT22;3755;59.316;18.092;2022-09-04T00:08:00;11.30;99.90
7427;DHT22;3755;59.316;18.092;2022-09-04T00:10:32;11.30;99.90
7427;DHT22;3755;59.316;18.092;2022-09-04T00:13:09;11.20;99.90
7427;DHT22;3755;59.316;18.092;2022-09-04T00:15:42;11.20;99.90
7427;DHT22;3755;59.316;18.092;2022-09-04T00:18:15;11.20;99.90
7427;DHT22;3755;59.316;18.092;2022-09-04T00:20:52;11.20;99.90
7427;DHT22;3755;59.316;18.092;2022-09-04T00:23:25;11.20;99.90
7427;DHT22;3755;59.316;18.092;2022-09-04T00:26:00;11.20;99.90
7427;DHT22;3755;59.316;18.092;2022-09-04T00:28:35;11.20;99.90
7427;DHT22;3755;59.316;18.092;2022-09-04T00:31:13;11.20;99.90
7427;DHT22;3755;59.316;18.092;2022-09-04T00:33:50;11.10;99.90
7427;DHT22;3755;59.316;18.092;2022-09-04T00:36:24;11.00;99.90
7427;DHT22;3755;59.316;18.092;2022-09-04T00:38:56;11.00;99.90
7427;DHT22;3755;59.316;18.092;2022-09-04T00:41:27;11.00;99.90
7427;DHT22;3755;59.316;18.092;2022-09-04T00:44:16;10.90;99.90
7427;DHT22;3755;59.316;18.092;2022-09-04T00:47:17;10.80;99.90
7427;DHT22;3755;59.316;18.092;2022-09-04T00:49:58;10.80;99.90
7427;DHT22;3755;59.316;18.092;2022-09-04T01:15:33;10.50;99.90
7427;DHT22;3755;59.316;18.092;2022-09-04T01:18:48;10.50;99.90
7427;DHT22;3755;59.316;18.092;2022-09-04T01:24:53;10.50;99.90
7427;DHT22;3755;59.316;18.092;2022-09-04T01:27:31;10.50;99.90
7427;DHT22;3755;59.316;18.092;2022-09-04T01:30:04;10.50;99.90
7427;DHT22;3755;59.316;18.092;2022-09-04T01:35:55;10.40;99.90
7427;DHT22;3755;59.316;18.092;2022-09-04T01:38:32;10.40;99.90
7427;DHT22;3755;59.316;18.092;2022-09-04T01:41:06;10.30;99.90
7427;DHT22;3755;59.316;18.092;2022-09-04T01:44:12;10.30;99.90
7427;DHT22;3755;59.316;18.092;2022-09-04T01:46:47;10.30;99.90
7427;DHT22;3755;59.316;18.092;2022-09-04T01:49:26;10.30;99.90
7427;DHT22;3755;59.316;18.092;2022-09-04T01:52:02;10.30;99.90
7427;DHT22;3755;59.316;18.092;2022-09-04T01:54:51;10.30;99.90
7427;DHT22;3755;59.316;18.092;2022-09-04T01:57:35;10.30;99.90
7427;DHT22;3755;59.316;18.092;2022-09-04T02:00:10;10.30;99.90
7427;DHT22;3755;59.316;18.092;2022-09-04T02:06:18;10.30;99.90
7427;DHT22;3755;59.316;18.092;2022-09-04T02:08:58;10.40;99.90
7427;DHT22;3755;59.316;18.092;2022-09-04T02:11:29;10.30;99.90
7427;DHT22;3755;59.316;18.092;2022-09-04T02:14:09;10.40;99.90
7427;DHT22;3755;59.316;18.092;2022-09-04T02:16:56;10.40;99.90
7427;DHT22;3755;59.316;18.092;2022-09-04T02:19:47;10.40;99.90
7427;DHT22;3755;59.316;18.092;2022-09-04T02:22:25;10.40;99.90
7427;DHT22;3755;59.316;18.092;2022-09-04T02:25:03;10.40;99.90
7427;DHT22;3755;59.316;18.092;2022-09-04T02:28:15;10.30;99.90
7427;DHT22;3755;59.316;18.092;2022-09-04T02:30:50;10.40;99.90
7427;DHT22;3755;59.316;18.092;2022-09-04T02:33:27;10.40;99.90
7427;DHT22;3755;59.316;18.092;2022-09-04T02:36:03;10.40;99.90
7427;DHT22;3755;59.316;18.092;2022-09-04T02:38:37;10.40;99.90
7427;DHT22;3755;59.316;18.092;2022-09-04T02:41:13;10.40;99.90
7427;DHT22;3755;59.316;18.092;2022-09-04T02:44:04;10.40;99.90
7427;DHT22;3755;59.316;18.092;2022-09-04T02:46:39;10.40;99.90
7427;DHT22;3755;59.316;18.092;2022-09-04T02:49:16;10.40;99.90
7427;DHT22;3755;59.316;18.092;2022-09-04T02:52:29;10.30;99.90
7427;DHT22;3755;59.316;18.092;2022-09-04T02:55:10;10.30;99.90
7427;DHT22;3755;59.316;18.092;2022-09-04T02:57:53;10.30;99.90
7427;DHT22;3755;59.316;18.092;2022-09-04T03:00:35;10.30;99.90
7427;DHT22;3755;59.316;18.092;2022-09-04T03:03:10;10.20;99.90
7427;DHT22;3755;59.316;18.092;2022-09-04T03:05:46;10.20;99.90
7427;DHT22;3755;59.316;18.092;2022-09-04T03:08:18;10.20;99.90
7427;DHT22;3755;59.316;18.092;2022-09-04T03:10:52;10.10;99.90
7427;DHT22;3755;59.316;18.092;2022-09-04T03:13:25;10.00;99.90
7427;DHT22;3755;59.316;18.092;2022-09-04T03:16:00;9.90;99.90
7427;DHT22;3755;59.316;18.092;2022-09-04T03:18:30;10.00;99.90
7427;DHT22;3755;59.316;18.092;2022-09-04T03:24:27;9.90;99.90
7427;DHT22;3755;59.316;18.092;2022-09-04T03:26:59;9.90;99.90
7427;DHT22;3755;59.316;18.092;2022-09-04T03:29:34;9.80;99.90
7427;DHT22;3755;59.316;18.092;2022-09-04T03:32:09;9.80;99.90
7427;DHT22;3755;59.316;18.092;2022-09-04T03:35:21;9.70;99.90
7427;DHT22;3755;59.316;18.092;2022-09-04T03:38:05;9.70;99.90
7427;DHT22;3755;59.316;18.092;2022-09-04T03:40:37;9.70;99.90
7427;DHT22;3755;59.316;18.092;2022-09-04T03:43:33;9.70;99.90
7427;DHT22;3755;59.316;18.092;2022-09-04T03:49:15;9.80;99.90
7427;DHT22;3755;59.316;18.092;2022-09-04T03:51:55;9.90;99.90
7427;DHT22;3755;59.316;18.092;2022-09-04T03:54:44;9.90;99.90
7427;DHT22;3755;59.316;18.092;2022-09-04T03:57:32;9.90;99.90
7427;DHT22;3755;59.316;18.092;2022-09-04T04:00:05;9.90;99.90
7427;DHT22;3755;59.316;18.092;2022-09-04T04:03:03;9.90;99.90
7427;DHT22;3755;59.316;18.092;2022-09-04T04:05:43;10.00;99.90
7427;DHT22;3755;59.316;18.092;2022-09-04T04:08:51;10.00;99.90
7427;DHT22;3755;59.316;18.092;2022-09-04T04:11:36;10.00;99.90
7427;DHT22;3755;59.316;18.092;2022-09-04T04:14:42;10.10;99.90
7427;DHT22;3755;59.316;18.092;2022-09-04T04:17:45;10.20;99.90
7427;DHT22;3755;59.316;18.092;2022-09-04T04:20:22;10.40;99.90
7427;DHT22;3755;59.316;18.092;2022-09-04T04:23:07;10.50;99.90
7427;DHT22;3755;59.316;18.092;2022-09-04T04:25:55;10.80;99.90
7427;DHT22;3755;59.316;18.092;2022-09-04T04:28:46;10.70;99.90
7427;DHT22;3755;59.316;18.092;2022-09-04T04:31:31;10.70;99.90
7427;DHT22;3755;59.316;18.092;2022-09-04T04:34:08;10.70;99.90
7427;DHT22;3755;59.316;18.092;2022-09-04T04:36:45;10.70;99.90
7427;DHT22;3755;59.316;18.092;2022-09-04T04:39:24;10.70;99.90
7427;DHT22;3755;59.316;18.092;2022-09-04T04:42:11;10.60;99.90
7427;DHT22;3755;59.316;18.092;2022-09-04T04:45:10;10.60;99.90
7427;DHT22;3755;59.316;18.092;2022-09-04T05:01:03;10.40;99.90
7427;DHT22;3755;59.316;18.092;2022-09-04T05:06:34;10.60;99.90
7427;DHT22;3755;59.316;18.092;2022-09-04T05:09:21;10.70;99.90
7427;DHT22;3755;59.316;18.092;2022-09-04T05:11:55;10.70;99.90
7427;DHT22;3755;59.316;18.092;2022-09-04T05:14:31;10.80;99.90
7427;DHT22;3755;59.316;18.092;2022-09-04T05:17:08;10.80;99.90
7427;DHT22;3755;59.316;18.092;2022-09-04T05:19:46;10.80;99.90
7427;DHT22;3755;59.316;18.092;2022-09-04T05:22:21;10.80;99.90
7427;DHT22;3755;59.316;18.092;2022-09-04T05:24:58;10.80;99.90
7427;DHT22;3755;59.316;18.092;2022-09-04T05:27:50;10.80;99.90
7427;DHT22;3755;59.316;18.092;2022-09-04T05:30:32;10.80;99.90
7427;DHT22;3755;59.316;18.092;2022-09-04T05:33:11;10.80;99.90
7427;DHT22;3755;59.316;18.092;2022-09-04T05:35:47;10.80;99.90
7427;DHT22;3755;59.316;18.092;2022-09-04T05:38:20;10.70;99.90
7427;DHT22;3755;59.316;18.092;2022-09-04T05:41:06;10.80;99.90
7427;DHT22;3755;59.316;18.092;2022-09-04T05:43:54;10.80;99.90
7427;DHT22;3755;59.316;18.092;2022-09-04T05:46:33;10.90;99.90
7427;DHT22;3755;59.316;18.092;2022-09-04T05:49:15;11.00;99.90
7427;DHT22;3755;59.316;18.092;2022-09-04T05:52:17;11.00;99.90
7427;DHT22;3755;59.316;18.092;2022-09-04T05:55:11;11.10;99.90
7427;DHT22;3755;59.316;18.092;2022-09-04T05:57:56;11.10;99.90
7427;DHT22;3755;59.316;18.092;2022-09-04T06:00:35;11.10;99.90
7427;DHT22;3755;59.316;18.092;2022-09-04T06:09:44;11.30;99.90
7427;DHT22;3755;59.316;18.092;2022-09-04T06:12:36;11.30;99.90
7427;DHT22;3755;59.316;18.092;2022-09-04T06:15:15;11.40;99.90
7427;DHT22;3755;59.316;18.092;2022-09-04T06:17:54;11.50;99.90
7427;DHT22;3755;59.316;18.092;2022-09-04T06:20:57;11.50;99.90
7427;DHT22;3755;59.316;18.092;2022-09-04T06:27:08;11.60;99.90
7427;DHT22;3755;59.316;18.092;2022-09-04T06:30:03;11.60;99.90
7427;DHT22;3755;59.316;18.092;2022-09-04T06:35:33;11.50;99.90
7427;DHT22;3755;59.316;18.092;2022-09-04T06:38:23;11.40;99.90
7427;DHT22;3755;59.316;18.092;2022-09-04T06:41:05;11.30;99.90
7427;DHT22;3755;59.316;18.092;2022-09-04T06:43:47;11.20;99.90
7427;DHT22;3755;59.316;18.092;2022-09-04T06:46:29;11.20;99.90
7427;DHT22;3755;59.316;18.092;2022-09-04T06:49:43;11.40;99.90
7427;DHT22;3755;59.316;18.092;2022-09-04T06:53:14;11.70;99.90
7427;DHT22;3755;59.316;18.092;2022-09-04T07:28:44;12.40;99.90
7427;DHT22;3755;59.316;18.092;2022-09-04T07:31:21;12.50;99.90
7427;DHT22;3755;59.316;18.092;2022-09-04T07:34:07;12.50;99.90
7427;DHT22;3755;59.316;18.092;2022-09-04T07:37:14;12.60;99.90
7427;DHT22;3755;59.316;18.092;2022-09-04T07:39:58;12.70;99.90
7427;DHT22;3755;59.316;18.092;2022-09-04T07:42:43;12.80;99.90
7427;DHT22;3755;59.316;18.092;2022-09-04T07:45:25;12.90;99.90
7427;DHT22;3755;59.316;18.092;2022-09-04T07:48:21;13.00;99.90
7427;DHT22;3755;59.316;18.092;2022-09-04T07:50:56;13.10;99.90
7427;DHT22;3755;59.316;18.092;2022-09-04T07:53:43;13.20;99.90
7427;DHT22;3755;59.316;18.092;2022-09-04T07:56:22;13.20;99.90
7427;DHT22;3755;59.316;18.092;2022-09-04T07:59:29;13.20;99.90
7427;DHT22;3755;59.316;18.092;2022-09-04T08:02:25;13.00;99.90
7427;DHT22;3755;59.316;18.092;2022-09-04T08:05:23;13.10;99.90
7427;DHT22;3755;59.316;18.092;2022-09-04T08:14:12;13.30;99.90
7427;DHT22;3755;59.316;18.092;2022-09-04T08:16:48;13.30;99.90
7427;DHT22;3755;59.316;18.092;2022-09-04T08:22:48;13.60;99.90
7427;DHT22;3755;59.316;18.092;2022-09-04T08:25:24;13.50;99.90
7427;DHT22;3755;59.316;18.092;2022-09-04T08:31:22;13.80;99.90
7427;DHT22;3755;59.316;18.092;2022-09-04T08:50:51;14.10;99.90
7427;DHT22;3755;59.316;18.092;2022-09-04T08:57:49;14.20;99.90
7427;DHT22;3755;59.316;18.092;2022-09-04T09:00:48;14.20;99.90
7427;DHT22;3755;59.316;18.092;2022-09-04T09:17:06;14.00;99.90
7427;DHT22;3755;59.316;18.092;2022-09-04T09:19:44;13.90;99.90
7427;DHT22;3755;59.316;18.092;2022-09-04T09:25:49;14.20;99.90
7427;DHT22;3755;59.316;18.092;2022-09-04T09:38:44;14.90;99.90
7427;DHT22;3755;59.316;18.092;2022-09-04T09:44:54;15.00;99.80
7427;DHT22;3755;59.316;18.092;2022-09-04T10:00:19;15.20;98.50
7427;DHT22;3755;59.316;18.092;2022-09-04T10:23:53;15.30;96.80
7427;DHT22;3755;59.316;18.092;2022-09-04T10:30:07;15.60;96.10
7427;DHT22;3755;59.316;18.092;2022-09-04T10:33:09;15.80;95.50
7427;DHT22;3755;59.316;18.092;2022-09-04T10:39:12;15.60;93.60
7427;DHT22;3755;59.316;18.092;2022-09-04T10:42:06;15.50;94.00
7427;DHT22;3755;59.316;18.092;2022-09-04T10:48:26;15.70;94.60
7427;DHT22;3755;59.316;18.092;2022-09-04T10:51:50;15.80;94.10
7427;DHT22;3755;59.316;18.092;2022-09-04T11:38:15;16.90;93.70
7427;DHT22;3755;59.316;18.092;2022-09-04T12:06:53;16.50;95.20
7427;DHT22;3755;59.316;18.092;2022-09-04T12:09:59;16.40;94.70
7427;DHT22;3755;59.316;18.092;2022-09-04T12:23:16;16.40;96.30
7427;DHT22;3755;59.316;18.092;2022-09-04T12:33:03;15.90;96.90
7427;DHT22;3755;59.316;18.092;2022-09-04T12:40:01;15.70;97.10
7427;DHT22;3755;59.316;18.092;2022-09-04T12:53:38;15.40;97.80
7427;DHT22;3755;59.316;18.092;2022-09-04T12:56:36;15.60;97.30
7427;DHT22;3755;59.316;18.092;2022-09-04T12:59:30;15.60;97.00
7427;DHT22;3755;59.316;18.092;2022-09-04T13:28:49;15.20;96.40
7427;DHT22;3755;59.316;18.092;2022-09-04T13:35:30;15.10;96.40
7427;DHT22;3755;59.316;18.092;2022-09-04T13:38:49;15.00;96.40
7427;DHT22;3755;59.316;18.092;2022-09-04T13:45:06;15.00;97.10
7427;DHT22;3755;59.316;18.092;2022-09-04T13:51:40;15.00;97.10
7427;DHT22;3755;59.316;18.092;2022-09-04T14:01:47;15.40;96.80
7427;DHT22;3755;59.316;18.092;2022-09-04T14:07:43;15.60;96.30
7427;DHT22;3755;59.316;18.092;2022-09-04T14:14:18;15.80;96.30
7427;DHT22;3755;59.316;18.092;2022-09-04T14:16:56;16.00;96.00
7427;DHT22;3755;59.316;18.092;2022-09-04T14:43:34;16.30;93.10
7427;DHT22;3755;59.316;18.092;2022-09-04T14:53:28;16.00;93.90
7427;DHT22;3755;59.316;18.092;2022-09-04T14:59:23;15.50;94.20
7427;DHT22;3755;59.316;18.092;2022-09-04T15:01:59;15.40;94.30
7427;DHT22;3755;59.316;18.092;2022-09-04T15:04:46;15.30;94.60
7427;DHT22;3755;59.316;18.092;2022-09-04T15:07:50;15.20;95.10
7427;DHT22;3755;59.316;18.092;2022-09-04T15:10:29;15.20;95.70
7427;DHT22;3755;59.316;18.092;2022-09-04T15:13:36;15.10;95.00
7427;DHT22;3755;59.316;18.092;2022-09-04T15:16:16;14.90;95.70
7427;DHT22;3755;59.316;18.092;2022-09-04T15:18:54;14.80;96.10
7427;DHT22;3755;59.316;18.092;2022-09-04T15:21:32;14.70;95.80
7427;DHT22;3755;59.316;18.092;2022-09-04T15:24:23;14.60;96.30
7427;DHT22;3755;59.316;18.092;2022-09-04T15:27:19;14.60;95.80
7427;DHT22;3755;59.316;18.092;2022-09-04T15:30:03;14.60;96.50
7427;DHT22;3755;59.316;18.092;2022-09-04T15:32:35;14.80;96.40
7427;DHT22;3755;59.316;18.092;2022-09-04T15:38:25;15.00;96.00
7427;DHT22;3755;59.316;18.092;2022-09-04T15:41:14;15.20;95.50
7427;DHT22;3755;59.316;18.092;2022-09-04T15:50:21;15.30;95.00
7427;DHT22;3755;59.316;18.092;2022-09-04T16:36:32;14.40;96.90
7427;DHT22;3755;59.316;18.092;2022-09-04T16:39:42;14.40;97.40
7427;DHT22;3755;59.316;18.092;2022-09-04T16:42:40;14.30;97.50
7427;DHT22;3755;59.316;18.092;2022-09-04T16:45:33;14.30;97.80
7427;DHT22;3755;59.316;18.092;2022-09-04T16:48:23;14.20;97.60
7427;DHT22;3755;59.316;18.092;2022-09-04T16:51:13;14.20;97.70
7427;DHT22;3755;59.316;18.092;2022-09-04T16:57:27;14.20;97.80
7427;DHT22;3755;59.316;18.092;2022-09-04T17:03:45;14.30;97.70
7427;DHT22;3755;59.316;18.092;2022-09-04T17:10:01;14.00;97.60
7427;DHT22;3755;59.316;18.092;2022-09-04T17:19:30;14.00;97.70
7427;DHT22;3755;59.316;18.092;2022-09-04T17:25:48;13.90;97.90
7427;DHT22;3755;59.316;18.092;2022-09-04T17:28:42;13.90;97.90
7427;DHT22;3755;59.316;18.092;2022-09-04T17:31:24;13.80;98.00
7427;DHT22;3755;59.316;18.092;2022-09-04T17:34:44;13.80;98.10
7427;DHT22;3755;59.316;18.092;2022-09-04T17:37:20;13.70;98.30
7427;DHT22;3755;59.316;18.092;2022-09-04T17:40:11;13.70;98.40
7427;DHT22;3755;59.316;18.092;2022-09-04T17:43:19;13.70;98.60
7427;DHT22;3755;59.316;18.092;2022-09-04T17:46:22;13.60;98.60
7427;DHT22;3755;59.316;18.092;2022-09-04T17:49:33;13.60;98.70
7427;DHT22;3755;59.316;18.092;2022-09-04T17:52:35;13.50;98.80
7427;DHT22;3755;59.316;18.092;2022-09-04T17:55:20;13.50;98.80
7427;DHT22;3755;59.316;18.092;2022-09-04T17:57:56;13.40;99.00
7427;DHT22;3755;59.316;18.092;2022-09-04T18:00:57;13.20;99.00
7427;DHT22;3755;59.316;18.092;2022-09-04T18:03:45;13.30;99.00
7427;DHT22;3755;59.316;18.092;2022-09-04T18:06:23;13.30;99.20
7427;DHT22;3755;59.316;18.092;2022-09-04T18:09:26;13.20;99.30
7427;DHT22;3755;59.316;18.092;2022-09-04T18:12:03;13.10;99.60
7427;DHT22;3755;59.316;18.092;2022-09-04T18:14:49;13.00;99.90
7427;DHT22;3755;59.316;18.092;2022-09-04T18:17:29;13.00;99.90
7427;DHT22;3755;59.316;18.092;2022-09-04T18:26:21;12.50;99.90
7427;DHT22;3755;59.316;18.092;2022-09-04T18:29:33;12.50;99.90
7427;DHT22;3755;59.316;18.092;2022-09-04T18:32:09;12.60;99.90
7427;DHT22;3755;59.316;18.092;2022-09-04T18:34:54;12.50;99.90
7427;DHT22;3755;59.316;18.092;2022-09-04T18:37:28;12.40;99.90
7427;DHT22;3755;59.316;18.092;2022-09-04T18:40:17;12.40;99.90
7427;DHT22;3755;59.316;18.092;2022-09-04T18:42:53;12.30;99.90
7427;DHT22;3755;59.316;18.092;2022-09-04T18:45:27;12.20;99.90
7427;DHT22;3755;59.316;18.092;2022-09-04T18:48:17;12.20;99.90
7427;DHT22;3755;59.316;18.092;2022-09-04T18:50:57;12.10;99.90
7427;DHT22;3755;59.316;18.092;2022-09-04T18:53:39;12.10;99.90
7427;DHT22;3755;59.316;18.092;2022-09-04T18:56:14;12.10;99.90
7427;DHT22;3755;59.316;18.092;2022-09-04T18:59:13;12.10;99.90
7427;DHT22;3755;59.316;18.092;2022-09-04T19:02:17;12.20;99.90
7427;DHT22;3755;59.316;18.092;2022-09-04T19:04:49;12.30;99.90
7427;DHT22;3755;59.316;18.092;2022-09-04T19:07:29;12.30;99.90
7427;DHT22;3755;59.316;18.092;2022-09-04T19:10:09;12.30;99.90
7427;DHT22;3755;59.316;18.092;2022-09-04T19:12:58;12.40;99.90
7427;DHT22;3755;59.316;18.092;2022-09-04T19:15:49;12.40;99.90
7427;DHT22;3755;59.316;18.092;2022-09-04T19:18:27;12.40;99.90
7427;DHT22;3755;59.316;18.092;2022-09-04T19:21:28;12.40;99.90
7427;DHT22;3755;59.316;18.092;2022-09-04T19:24:11;12.40;99.90
7427;DHT22;3755;59.316;18.092;2022-09-04T19:26:47;12.40;99.90
7427;DHT22;3755;59.316;18.092;2022-09-04T19:29:19;12.40;99.90
7427;DHT22;3755;59.316;18.092;2022-09-04T19:31:56;12.40;99.90
7427;DHT22;3755;59.316;18.092;2022-09-04T19:34:34;12.40;99.90
7427;DHT22;3755;59.316;18.092;2022-09-04T19:37:07;12.40;99.90
7427;DHT22;3755;59.316;18.092;2022-09-04T19:39:39;12.40;99.90
7427;DHT22;3755;59.316;18.092;2022-09-04T19:42:17;12.40;99.90
7427;DHT22;3755;59.316;18.092;2022-09-04T19:44:52;12.40;99.90
7427;DHT22;3755;59.316;18.092;2022-09-04T19:47:36;12.40;99.90
7427;DHT22;3755;59.316;18.092;2022-09-04T19:50:14;12.30;99.90
7427;DHT22;3755;59.316;18.092;2022-09-04T20:06:00;12.20;99.90
7427;DHT22;3755;59.316;18.092;2022-09-04T20:08:36;12.20;99.90
7427;DHT22;3755;59.316;18.092;2022-09-04T20:11:10;12.10;99.90
7427;DHT22;3755;59.316;18.092;2022-09-04T20:13:41;12.10;99.90
7427;DHT22;3755;59.316;18.092;2022-09-04T20:16:16;12.00;99.90
7427;DHT22;3755;59.316;18.092;2022-09-04T20:18:52;11.90;99.90
7427;DHT22;3755;59.316;18.092;2022-09-04T20:21:25;11.80;99.90
7427;DHT22;3755;59.316;18.092;2022-09-04T20:24:00;11.80;99.90
7427;DHT22;3755;59.316;18.092;2022-09-04T20:26:43;11.80;99.90
7427;DHT22;3755;59.316;18.092;2022-09-04T20:29:16;11.60;99.90
7427;DHT22;3755;59.316;18.092;2022-09-04T20:31:51;11.70;99.90
7427;DHT22;3755;59.316;18.092;2022-09-04T20:34:27;11.60;99.90
7427;DHT22;3755;59.316;18.092;2022-09-04T20:37:18;11.60;99.90
7427;DHT22;3755;59.316;18.092;2022-09-04T20:39:58;11.60;99.90
7427;DHT22;3755;59.316;18.092;2022-09-04T20:42:32;11.50;99.90
7427;DHT22;3755;59.316;18.092;2022-09-04T20:45:04;11.50;99.90
7427;DHT22;3755;59.316;18.092;2022-09-04T20:47:39;11.50;99.90
7427;DHT22;3755;59.316;18.092;2022-09-04T20:50:30;11.50;99.90
7427;DHT22;3755;59.316;18.092;2022-09-04T20:53:13;11.40;99.90
7427;DHT22;3755;59.316;18.092;2022-09-04T20:55:57;11.40;99.90
7427;DHT22;3755;59.316;18.092;2022-09-04T20:58:41;11.40;99.90
7427;DHT22;3755;59.316;18.092;2022-09-04T21:01:19;11.30;99.90
7427;DHT22;3755;59.316;18.092;2022-09-04T21:03:58;11.20;99.90
7427;DHT22;3755;59.316;18.092;2022-09-04T21:06:35;11.20;99.90
7427;DHT22;3755;59.316;18.092;2022-09-04T21:09:26;11.20;99.90
7427;DHT22;3755;59.316;18.092;2022-09-04T21:12:14;11.20;99.90
7427;DHT22;3755;59.316;18.092;2022-09-04T21:14:43;11.20;99.90
7427;DHT22;3755;59.316;18.092;2022-09-04T21:17:47;11.20;99.90
7427;DHT22;3755;59.316;18.092;2022-09-04T21:20:47;11.20;99.90
7427;DHT22;3755;59.316;18.092;2022-09-04T21:29:39;11.20;99.90
7427;DHT22;3755;59.316;18.092;2022-09-04T21:32:30;11.10;99.90
7427;DHT22;3755;59.316;18.092;2022-09-04T21:35:06;11.10;99.90
7427;DHT22;3755;59.316;18.092;2022-09-04T21:37:40;11.10;99.90
7427;DHT22;3755;59.316;18.092;2022-09-04T21:49:19;10.80;99.90
7427;DHT22;3755;59.316;18.092;2022-09-04T21:52:06;10.80;99.90
7427;DHT22;3755;59.316;18.092;2022-09-04T21:54:53;10.70;99.90
7427;DHT22;3755;59.316;18.092;2022-09-04T22:00:25;10.60;99.90
7427;DHT22;3755;59.316;18.092;2022-09-04T22:03:04;10.60;99.90
7427;DHT22;3755;59.316;18.092;2022-09-04T22:05:44;10.50;99.90
7427;DHT22;3755;59.316;18.092;2022-09-04T22:08:43;10.40;99.90
7427;DHT22;3755;59.316;18.092;2022-09-04T22:11:33;10.40;99.90
7427;DHT22;3755;59.316;18.092;2022-09-04T22:14:12;10.40;99.90
7427;DHT22;3755;59.316;18.092;2022-09-04T22:17:04;10.30;99.90
7427;DHT22;3755;59.316;18.092;2022-09-04T22:20:01;10.30;99.90
7427;DHT22;3755;59.316;18.092;2022-09-04T22:25:46;10.30;99.90
7427;DHT22;3755;59.316;18.092;2022-09-04T22:31:42;10.20;99.90
7427;DHT22;3755;59.316;18.092;2022-09-04T22:34:43;10.20;99.90
7427;DHT22;3755;59.316;18.092;2022-09-04T22:38:12;10.20;99.90
7427;DHT22;3755;59.316;18.092;2022-09-04T22:40:55;10.30;99.90
7427;DHT22;3755;59.316;18.092;2022-09-04T22:43:26;10.20;99.90
7427;DHT22;3755;59.316;18.092;2022-09-04T22:49:33;10.20;99.90
7427;DHT22;3755;59.316;18.092;2022-09-04T22:52:35;10.10;99.90
7427;DHT22;3755;59.316;18.092;2022-09-04T22:55:22;10.00;99.90
7427;DHT22;3755;59.316;18.092;2022-09-04T22:57:58;10.00;99.90
7427;DHT22;3755;59.316;18.092;2022-09-04T23:00:28;10.00;99.90
7427;DHT22;3755;59.316;18.092;2022-09-04T23:03:30;9.90;99.90
7427;DHT22;3755;59.316;18.092;2022-09-04T23:06:47;9.90;99.90
7427;DHT22;3755;59.316;18.092;2022-09-04T23:09:36;9.90;99.90
7427;DHT22;3755;59.316;18.092;2022-09-04T23:12:30;9.90;99.90
7427;DHT22;3755;59.316;18.092;2022-09-04T23:15:10;9.90;99.90
7427;DHT22;3755;59.316;18.092;2022-09-04T23:17:52;9.80;99.90
7427;DHT22;3755;59.316;18.092;2022-09-04T23:20:44;9.80;99.90
7427;DHT22;3755;59.316;18.092;2022-09-04T23:23:37;9.80;99.90
7427;DHT22;3755;59.316;18.092;2022-09-04T23:29:26;9.70;99.90
7427;DHT22;3755;59.316;18.092;2022-09-04T23:32:11;9.80;99.90
7427;DHT22;3755;59.316;18.092;2022-09-04T23:35:05;9.80;99.90
7427;DHT22;3755;59.316;18.092;2022-09-04T23:38:01;9.80;99.90
7427;DHT22;3755;59.316;18.092;2022-09-04T23:40:38;9.90;99.90
7427;DHT22;3755;59.316;18.092;2022-09-04T23:46:48;9.80;99.90
7427;DHT22;3755;59.316;18.092;2022-09-04T23:49:34;9.80;99.90
7427;DHT22;3755;59.316;18.092;2022-09-04T23:52:12;9.70;99.90
7427;DHT22;3755;59.316;18.092;2022-09-04T23:54:57;9.70;99.90
7427;DHT22;3755;59.316;18.092;2022-09-04T23:57:38;9.60;99.90
